createdAt,value
2022-08-22T00:01:14.352Z,18.17
2022-08-22T00:02:43.869Z,19.57
2022-08-22T00:02:44.174Z,19.39
2022-08-22T00:03:50.862Z,18.15
2022-08-22T00:06:50.160Z,18.11
2022-08-22T00:09:29.568Z,18.07
2022-08-22T00:12:12.788Z,18.07
2022-08-22T00:14:46.976Z,18.06
2022-08-22T00:17:32.410Z,18.02
2022-08-22T00:20:30.904Z,17.96
2022-08-22T00:23:28.844Z,17.95
2022-08-22T00:26:03.191Z,17.93
2022-08-22T00:28:50.100Z,17.93
2022-08-22T00:31:27.394Z,17.91
2022-08-22T00:34:17.568Z,17.90
2022-08-22T00:36:51.497Z,17.93
2022-08-22T00:39:27.872Z,17.87
2022-08-22T00:42:31.636Z,17.85
2022-08-22T00:45:05.062Z,17.81
2022-08-22T00:48:18.827Z,17.76
2022-08-22T00:51:07.281Z,17.76
2022-08-22T00:53:43.210Z,17.70
2022-08-22T00:56:22.197Z,17.68
2022-08-22T00:59:23.665Z,17.65
2022-08-22T01:02:10.792Z,17.64
2022-08-22T01:05:01.288Z,17.60
2022-08-22T01:08:05.116Z,17.62
2022-08-22T01:10:45.442Z,17.61
2022-08-22T01:13:38.312Z,17.62
2022-08-22T01:16:35.316Z,17.58
2022-08-22T01:19:29.491Z,17.55
2022-08-22T01:22:05.360Z,17.54
2022-08-22T01:25:07.270Z,17.53
2022-08-22T01:27:51.141Z,17.52
2022-08-22T01:30:32.461Z,17.56
2022-08-22T01:33:20.887Z,17.54
2022-08-22T01:35:59.506Z,17.50
2022-08-22T01:38:37.109Z,17.50
2022-08-22T01:41:45.072Z,17.45
2022-08-22T01:44:30.065Z,17.42
2022-08-22T01:47:02.858Z,17.41
2022-08-22T01:49:35.574Z,17.42
2022-08-22T01:52:06.516Z,17.39
2022-08-22T01:54:58.211Z,17.38
2022-08-22T01:57:26.344Z,17.38
2022-08-22T01:59:55.924Z,17.39
2022-08-22T02:02:24.504Z,17.38
2022-08-22T02:05:01.832Z,17.33
2022-08-22T02:07:55.864Z,17.30
2022-08-22T02:10:42.559Z,17.36
2022-08-22T02:13:13.044Z,17.34
2022-08-22T02:15:39.946Z,17.30
2022-08-22T02:18:06.643Z,17.26
2022-08-22T02:20:39.417Z,17.21
2022-08-22T02:23:18.482Z,17.22
2022-08-22T02:26:08.157Z,17.20
2022-08-22T02:28:56.974Z,17.14
2022-08-22T02:31:39.751Z,17.16
2022-08-22T02:34:29.081Z,17.15
2022-08-22T02:37:10.938Z,17.13
2022-08-22T02:39:51.977Z,17.13
2022-08-22T02:42:38.136Z,17.12
2022-08-22T02:45:15.704Z,17.08
2022-08-22T02:47:51.814Z,17.05
2022-08-22T02:50:44.864Z,17.03
2022-08-22T02:53:22.312Z,17.02
2022-08-22T02:56:01.061Z,17.03
2022-08-22T02:58:45.950Z,17.06
2022-08-22T03:01:37.374Z,17.04
2022-08-22T03:04:31.938Z,17.05
2022-08-22T03:06:58.569Z,17.04
2022-08-22T03:09:29.636Z,17.17
2022-08-22T03:12:19.269Z,17.20
2022-08-22T03:15:24.655Z,17.10
2022-08-22T03:17:57.360Z,17.11
2022-08-22T03:20:42.989Z,17.08
2022-08-22T03:23:15.917Z,17.10
2022-08-22T03:25:56.235Z,17.11
2022-08-22T03:28:32.159Z,17.09
2022-08-22T03:31:20.628Z,17.07
2022-08-22T03:34:17.154Z,17.07
2022-08-22T03:37:05.558Z,17.20
2022-08-22T03:39:47.345Z,17.25
2022-08-22T03:42:48.895Z,17.22
2022-08-22T03:45:34.576Z,17.15
2022-08-22T03:48:25.621Z,17.04
2022-08-22T03:51:30.023Z,17.07
2022-08-22T03:54:15.445Z,17.03
2022-08-22T03:56:58.895Z,16.98
2022-08-22T03:59:55.656Z,16.98
2022-08-22T04:02:51.871Z,16.96
2022-08-22T04:05:47.006Z,16.95
2022-08-22T04:08:28.043Z,16.98
2022-08-22T04:11:18.820Z,16.93
2022-08-22T04:14:10.595Z,16.97
2022-08-22T04:17:12.073Z,16.92
2022-08-22T04:19:54.480Z,16.94
2022-08-22T04:22:56.613Z,16.94
2022-08-22T04:25:25.981Z,16.93
2022-08-22T04:28:01.292Z,16.98
2022-08-22T04:30:32.331Z,16.99
2022-08-22T04:33:06.711Z,17.00
2022-08-22T04:35:39.520Z,17.07
2022-08-22T04:38:23.217Z,17.12
2022-08-22T04:40:54.578Z,17.14
2022-08-22T04:43:31.634Z,17.20
2022-08-22T04:46:10.833Z,17.24
2022-08-22T04:48:53.133Z,17.25
2022-08-22T04:51:52.045Z,17.43
2022-08-22T04:54:37.725Z,17.53
2022-08-22T04:57:26.217Z,17.55
2022-08-22T04:59:59.054Z,17.52
2022-08-22T05:02:28.007Z,17.56
2022-08-22T05:05:04.279Z,17.60
2022-08-22T05:07:37.644Z,17.68
2022-08-22T05:10:12.822Z,17.75
2022-08-22T05:12:49.821Z,17.78
2022-08-22T05:15:42.828Z,17.89
2022-08-22T05:18:14.582Z,18.00
2022-08-22T05:20:41.972Z,17.95
2022-08-22T05:23:25.657Z,18.01
2022-08-22T05:25:54.920Z,18.12
2022-08-22T05:28:37.816Z,18.21
2022-08-22T05:31:14.868Z,18.21
2022-08-22T05:33:55.027Z,18.31
2022-08-22T05:36:25.884Z,18.39
2022-08-22T05:39:11.358Z,18.43
2022-08-22T05:41:38.927Z,18.47
2022-08-22T05:44:14.000Z,18.48
2022-08-22T05:46:43.300Z,18.53
2022-08-22T05:49:19.288Z,18.59
2022-08-22T05:52:09.285Z,18.62
2022-08-22T05:54:46.378Z,18.74
2022-08-22T05:57:35.762Z,18.82
2022-08-22T06:00:11.212Z,18.85
2022-08-22T06:03:27.818Z,18.90
2022-08-22T06:05:57.047Z,18.94
2022-08-22T06:08:40.172Z,19.04
2022-08-22T06:11:22.341Z,19.09
2022-08-22T06:13:58.440Z,19.15
2022-08-22T06:16:47.520Z,19.20
2022-08-22T06:19:19.625Z,19.28
2022-08-22T06:21:49.118Z,19.37
2022-08-22T06:24:23.500Z,19.52
2022-08-22T06:26:53.320Z,19.56
2022-08-22T06:29:42.721Z,19.66
2022-08-22T06:32:58.225Z,19.73
2022-08-22T06:35:55.744Z,19.83
2022-08-22T06:38:28.522Z,19.95
2022-08-22T06:40:59.381Z,20.04
2022-08-22T06:43:39.777Z,20.12
2022-08-22T06:46:07.116Z,20.20
2022-08-22T06:48:35.688Z,20.26
2022-08-22T06:51:03.206Z,20.35
2022-08-22T06:53:36.094Z,20.40
2022-08-22T06:56:05.534Z,20.50
2022-08-22T06:58:39.670Z,20.59
2022-08-22T07:01:19.129Z,20.62
2022-08-22T07:03:50.291Z,20.73
2022-08-22T07:06:30.364Z,20.71
2022-08-22T07:08:57.690Z,20.83
2022-08-22T07:11:28.704Z,20.95
2022-08-22T07:13:59.311Z,20.99
2022-08-22T07:16:31.233Z,20.68
2022-08-22T07:18:58.400Z,20.97
2022-08-22T07:21:46.757Z,21.15
2022-08-22T07:24:17.552Z,21.25
2022-08-22T07:26:59.694Z,21.30
2022-08-22T07:29:51.473Z,21.44
2022-08-22T07:32:43.344Z,21.52
2022-08-22T07:35:17.235Z,21.54
2022-08-22T07:37:57.864Z,21.59
2022-08-22T07:40:36.078Z,21.49
2022-08-22T07:43:27.563Z,21.43
2022-08-22T07:46:02.100Z,21.58
2022-08-22T07:48:48.495Z,21.72
2022-08-22T07:51:37.114Z,21.85
2022-08-22T07:54:07.718Z,21.70
2022-08-22T07:56:46.461Z,22.09
2022-08-22T07:59:17.143Z,22.32
2022-08-22T08:01:49.322Z,22.58
2022-08-22T08:04:21.091Z,22.83
2022-08-22T08:06:53.475Z,23.04
2022-08-22T08:09:20.654Z,23.19
2022-08-22T08:11:49.770Z,23.10
2022-08-22T08:14:16.937Z,23.14
2022-08-22T08:16:52.879Z,23.50
2022-08-22T08:19:20.227Z,23.69
2022-08-22T08:21:49.971Z,23.79
2022-08-22T08:24:22.930Z,23.92
2022-08-22T08:27:12.991Z,24.08
2022-08-22T08:29:44.037Z,24.19
2022-08-22T08:32:12.326Z,24.27
2022-08-22T08:34:40.263Z,24.29
2022-08-22T08:37:16.828Z,24.38
2022-08-22T08:39:48.718Z,24.32
2022-08-22T08:43:19.500Z,24.47
2022-08-22T08:46:14.486Z,24.63
2022-08-22T08:48:44.347Z,24.80
2022-08-22T08:51:36.027Z,24.81
2022-08-22T08:54:30.631Z,25.06
2022-08-22T08:57:06.654Z,25.19
2022-08-22T09:00:15.006Z,24.91
2022-08-22T09:02:54.003Z,25.28
2022-08-22T09:05:45.679Z,25.34
2022-08-22T09:08:23.239Z,25.38
2022-08-22T09:11:28.611Z,25.44
2022-08-22T09:14:23.245Z,25.66
2022-08-22T09:17:22.832Z,25.64
2022-08-22T09:19:52.575Z,25.63
2022-08-22T09:22:33.342Z,25.91
2022-08-22T09:25:16.674Z,26.09
2022-08-22T09:27:54.895Z,25.88
2022-08-22T09:30:28.829Z,26.18
2022-08-22T09:33:16.476Z,26.22
2022-08-22T09:35:51.014Z,26.42
2022-08-22T09:38:47.804Z,26.56
2022-08-22T09:41:41.437Z,26.52
2022-08-22T09:44:30.690Z,26.54
2022-08-22T09:47:12.759Z,26.52
2022-08-22T09:50:01.769Z,26.66
2022-08-22T09:52:41.021Z,26.57
2022-08-22T09:55:43.124Z,26.30
2022-08-22T09:58:28.344Z,26.65
2022-08-22T10:01:00.021Z,26.36
2022-08-22T10:04:13.136Z,26.73
2022-08-22T10:07:15.712Z,26.62
2022-08-22T10:09:54.923Z,26.71
2022-08-22T10:12:36.287Z,27.17
2022-08-22T10:15:24.046Z,27.33
2022-08-22T10:18:01.626Z,27.52
2022-08-22T10:20:51.274Z,27.74
2022-08-22T10:23:21.729Z,27.58
2022-08-22T10:25:59.630Z,27.53
2022-08-22T10:28:43.380Z,27.68
2022-08-22T10:31:21.688Z,28.13
2022-08-22T10:34:12.676Z,28.50
2022-08-22T10:37:17.296Z,28.48
2022-08-22T10:40:22.222Z,28.50
2022-08-22T10:42:57.699Z,28.35
2022-08-22T10:45:39.068Z,28.63
2022-08-22T10:48:08.984Z,29.03
2022-08-22T10:51:11.627Z,28.94
2022-08-22T10:53:56.614Z,29.31
2022-08-22T10:56:30.021Z,29.46
2022-08-22T10:59:11.374Z,29.36
2022-08-22T11:01:53.360Z,29.21
2022-08-22T11:04:38.384Z,29.20
2022-08-22T11:07:44.565Z,28.93
2022-08-22T11:10:21.032Z,28.99
2022-08-22T11:12:59.079Z,28.98
2022-08-22T11:15:47.701Z,29.20
2022-08-22T11:18:42.317Z,29.41
2022-08-22T11:21:26.592Z,29.91
2022-08-22T11:24:01.910Z,30.23
2022-08-22T11:26:51.191Z,30.21
2022-08-22T11:29:51.725Z,30.40
2022-08-22T11:32:29.361Z,30.46
2022-08-22T11:35:00.982Z,30.15
2022-08-22T11:37:43.852Z,30.69
2022-08-22T11:40:17.788Z,30.88
2022-08-22T11:42:49.676Z,30.67
2022-08-22T11:45:22.589Z,30.66
2022-08-22T11:48:06.176Z,30.72
2022-08-22T11:51:18.992Z,30.11
2022-08-22T11:54:19.929Z,30.04
2022-08-22T11:57:04.291Z,29.87
2022-08-22T11:59:56.380Z,29.91
2022-08-22T12:02:41.713Z,29.65
2022-08-22T12:05:24.635Z,29.65
2022-08-22T12:08:13.954Z,29.07
2022-08-22T12:10:53.335Z,29.06
2022-08-22T12:13:35.431Z,29.40
2022-08-22T12:16:15.956Z,29.83
2022-08-22T12:18:42.798Z,30.39
2022-08-22T12:21:36.776Z,30.47
2022-08-22T12:24:19.399Z,30.38
2022-08-22T12:26:59.255Z,30.02
2022-08-22T12:29:44.675Z,30.04
2022-08-22T12:32:34.146Z,29.93
2022-08-22T12:35:19.226Z,29.81
2022-08-22T12:38:28.423Z,29.52
2022-08-22T12:41:28.359Z,29.76
2022-08-22T12:44:07.450Z,29.57
2022-08-22T12:47:20.938Z,29.58
2022-08-22T12:50:01.204Z,29.72
2022-08-22T12:52:42.373Z,30.09
2022-08-22T12:55:42.385Z,30.68
2022-08-22T12:58:33.890Z,30.63
2022-08-22T13:01:14.783Z,31.12
2022-08-22T13:04:03.050Z,31.27
2022-08-22T13:06:42.604Z,31.04
2022-08-22T13:09:28.850Z,31.50
2022-08-22T13:12:19.948Z,31.29
2022-08-22T13:14:50.830Z,30.77
2022-08-22T13:17:24.953Z,30.36
2022-08-22T13:19:54.996Z,30.02
2022-08-22T13:22:27.562Z,30.07
2022-08-22T13:25:26.170Z,29.62
2022-08-22T13:28:01.704Z,29.09
2022-08-22T13:30:37.539Z,28.73
2022-08-22T13:33:11.002Z,28.45
2022-08-22T13:35:52.448Z,28.30
2022-08-22T13:38:27.400Z,28.15
2022-08-22T13:40:56.263Z,28.30
2022-08-22T13:43:31.341Z,28.38
2022-08-22T13:46:02.110Z,28.39
2022-08-22T13:48:49.925Z,28.22
2022-08-22T13:51:40.432Z,28.27
2022-08-22T13:54:11.077Z,27.80
2022-08-22T13:56:54.109Z,27.77
2022-08-22T13:59:52.487Z,27.76
2022-08-22T14:02:43.695Z,27.67
2022-08-22T14:05:22.828Z,27.47
2022-08-22T14:08:25.785Z,27.13
2022-08-22T14:11:01.367Z,27.55
2022-08-22T14:14:08.385Z,27.29
2022-08-22T14:16:49.054Z,27.16
2022-08-22T14:19:52.957Z,27.37
2022-08-22T14:22:31.850Z,27.19
2022-08-22T14:25:03.588Z,27.21
2022-08-22T14:27:39.790Z,27.09
2022-08-22T14:30:18.831Z,27.30
2022-08-22T14:33:08.440Z,27.18
2022-08-22T14:35:44.569Z,27.12
2022-08-22T14:38:31.830Z,26.90
2022-08-22T14:41:05.801Z,26.76
2022-08-22T14:43:32.662Z,26.82
2022-08-22T14:46:02.391Z,26.61
2022-08-22T14:48:45.734Z,26.62
2022-08-22T14:51:24.200Z,26.69
2022-08-22T14:53:52.251Z,26.58
2022-08-22T14:56:22.136Z,26.50
2022-08-22T14:59:00.369Z,26.51
2022-08-22T15:01:32.876Z,26.74
2022-08-22T15:04:13.853Z,26.88
2022-08-22T15:06:51.389Z,26.83
2022-08-22T15:09:42.111Z,26.62
2022-08-22T15:12:29.409Z,26.37
2022-08-22T15:14:59.181Z,26.45
2022-08-22T15:17:44.137Z,26.55
2022-08-22T15:20:36.560Z,26.71
2022-08-22T15:23:20.279Z,26.61
2022-08-22T15:25:57.950Z,26.54
2022-08-22T15:28:25.021Z,26.62
2022-08-22T15:31:07.307Z,26.68
2022-08-22T15:33:40.463Z,26.64
2022-08-22T15:36:22.045Z,26.57
2022-08-22T15:38:57.700Z,26.59
2022-08-22T15:41:36.965Z,26.60
2022-08-22T15:44:13.881Z,26.45
2022-08-22T15:47:02.163Z,26.63
2022-08-22T15:49:31.109Z,26.48
2022-08-22T15:52:03.637Z,26.58
2022-08-22T15:55:05.734Z,26.34
2022-08-22T15:57:36.250Z,26.44
2022-08-22T16:00:27.927Z,26.44
2022-08-22T16:02:59.359Z,26.33
2022-08-22T16:05:39.695Z,26.33
2022-08-22T16:08:09.971Z,26.15
2022-08-22T16:10:42.843Z,26.15
2022-08-22T16:13:31.000Z,26.16
2022-08-22T16:16:07.240Z,26.12
2022-08-22T16:18:34.036Z,26.05
2022-08-22T16:21:29.032Z,26.01
2022-08-22T16:23:56.874Z,25.72
2022-08-22T16:26:25.200Z,25.80
2022-08-22T16:29:27.303Z,25.83
2022-08-22T16:31:59.173Z,25.92
2022-08-22T16:34:40.743Z,25.94
2022-08-22T16:37:18.218Z,25.90
2022-08-22T16:40:01.778Z,25.66
2022-08-22T16:42:37.321Z,25.33
2022-08-22T16:45:05.305Z,25.40
2022-08-22T16:47:32.856Z,25.52
2022-08-22T16:50:06.399Z,25.47
2022-08-22T16:53:13.825Z,25.50
2022-08-22T16:55:46.191Z,25.40
2022-08-22T16:58:22.471Z,25.49
2022-08-22T17:00:52.221Z,25.51
2022-08-22T17:03:28.081Z,25.46
2022-08-22T17:06:07.072Z,25.30
2022-08-22T17:08:37.726Z,25.22
2022-08-22T17:11:17.794Z,25.07
2022-08-22T17:14:03.036Z,25.02
2022-08-22T17:16:42.689Z,24.63
2022-08-22T17:19:24.299Z,24.54
2022-08-22T17:21:55.938Z,24.67
2022-08-22T17:24:58.427Z,24.77
2022-08-22T17:27:38.216Z,24.86
2022-08-22T17:30:33.832Z,24.89
2022-08-22T17:33:10.894Z,24.83
2022-08-22T17:36:00.214Z,24.83
2022-08-22T17:38:51.206Z,24.85
2022-08-22T17:41:50.396Z,24.84
2022-08-22T17:44:39.130Z,24.60
2022-08-22T17:47:23.421Z,24.35
2022-08-22T17:49:55.221Z,24.36
2022-08-22T17:52:36.049Z,24.42
2022-08-22T17:55:13.248Z,24.33
2022-08-22T17:57:45.838Z,24.41
2022-08-22T18:00:24.337Z,24.49
2022-08-22T18:03:16.370Z,24.48
2022-08-22T18:06:02.126Z,24.39
2022-08-22T18:11:47.090Z,24.26
2022-08-22T18:14:30.303Z,24.21
2022-08-22T18:16:59.346Z,24.26
2022-08-22T18:19:50.586Z,24.09
2022-08-22T18:22:34.554Z,24.07
2022-08-22T18:25:19.707Z,24.09
2022-08-22T18:27:54.264Z,24.16
2022-08-22T18:30:24.868Z,24.10
2022-08-22T18:32:58.994Z,23.98
2022-08-22T18:35:33.281Z,24.00
2022-08-22T18:38:29.162Z,23.82
2022-08-22T18:41:26.710Z,23.85
2022-08-22T18:43:53.793Z,23.83
2022-08-22T18:46:38.933Z,23.85
2022-08-22T18:49:31.712Z,23.85
2022-08-22T18:52:37.267Z,23.78
2022-08-22T18:55:16.216Z,23.77
2022-08-22T18:58:14.516Z,23.74
2022-08-22T19:00:59.643Z,23.65
2022-08-22T19:03:48.555Z,23.71
2022-08-22T19:06:54.827Z,23.68
2022-08-22T19:09:32.335Z,23.68
2022-08-22T19:12:11.389Z,23.67
2022-08-22T19:14:50.302Z,23.63
2022-08-22T19:17:28.629Z,23.60
2022-08-22T19:20:46.705Z,23.55
2022-08-22T19:23:31.991Z,23.43
2022-08-22T19:26:23.804Z,23.28
2022-08-22T19:28:52.755Z,23.11
2022-08-22T19:31:41.325Z,23.17
2022-08-22T19:34:28.398Z,23.20
2022-08-22T19:37:32.076Z,23.18
2022-08-22T19:40:02.062Z,23.16
2022-08-22T19:42:34.360Z,23.13
2022-08-22T19:45:08.973Z,23.14
2022-08-22T19:47:40.699Z,23.05
2022-08-22T19:50:16.555Z,23.05
2022-08-22T19:52:57.679Z,22.97
2022-08-22T19:55:57.145Z,22.77
2022-08-22T19:58:35.871Z,22.93
2022-08-22T20:01:29.117Z,22.86
2022-08-22T20:04:01.387Z,22.96
2022-08-22T20:06:46.244Z,22.93
2022-08-22T20:09:40.875Z,22.94
2022-08-22T20:12:20.204Z,22.96
2022-08-22T20:14:47.603Z,22.92
2022-08-22T20:17:34.331Z,22.94
2022-08-22T20:20:30.448Z,22.90
2022-08-22T20:23:06.425Z,22.86
2022-08-22T20:25:48.716Z,22.83
2022-08-22T20:28:39.416Z,22.76
2022-08-22T20:31:11.235Z,22.76
2022-08-22T20:33:41.505Z,22.70
2022-08-22T20:36:27.723Z,22.67
2022-08-22T20:38:58.814Z,22.68
2022-08-22T20:41:32.067Z,22.63
2022-08-22T20:44:16.002Z,22.63
2022-08-22T20:46:46.283Z,22.57
2022-08-22T20:49:20.478Z,22.58
2022-08-22T20:51:52.889Z,22.49
2022-08-22T20:54:24.072Z,22.54
2022-08-22T20:56:55.629Z,22.59
2022-08-22T20:59:38.073Z,22.57
2022-08-22T21:02:07.328Z,22.57
2022-08-22T21:04:49.851Z,22.54
2022-08-22T21:07:32.276Z,22.54
2022-08-22T21:10:22.828Z,22.49
2022-08-22T21:13:06.698Z,22.49
2022-08-22T21:15:37.831Z,22.45
2022-08-22T21:18:05.014Z,22.44
2022-08-22T21:20:37.197Z,22.40
2022-08-22T21:23:14.240Z,22.33
2022-08-22T21:25:49.736Z,22.30
2022-08-22T21:28:54.458Z,22.30
2022-08-22T21:31:24.216Z,22.26
2022-08-22T21:33:52.838Z,22.25
2022-08-22T21:36:22.633Z,22.21
2022-08-22T21:38:56.325Z,22.20
2022-08-22T21:41:25.969Z,22.19
2022-08-22T21:43:54.128Z,22.13
2022-08-22T21:46:26.723Z,22.10
2022-08-22T21:49:02.844Z,22.06
2022-08-22T21:51:43.728Z,22.02
2022-08-22T21:54:25.628Z,22.01
2022-08-22T21:56:54.863Z,21.96
2022-08-22T21:59:50.741Z,21.96
2022-08-22T22:02:28.365Z,21.92
2022-08-22T22:04:55.551Z,21.90
2022-08-22T22:07:24.232Z,21.85
2022-08-22T22:09:54.756Z,21.83
2022-08-22T22:12:22.252Z,21.80
2022-08-22T22:14:49.574Z,21.75
2022-08-22T22:17:17.957Z,21.66
2022-08-22T22:19:44.977Z,21.70
2022-08-22T22:22:11.731Z,21.70
2022-08-22T22:24:38.520Z,21.73
2022-08-22T22:27:05.885Z,21.72
2022-08-22T22:29:33.355Z,21.71
2022-08-22T22:32:00.117Z,21.68
2022-08-22T22:34:26.871Z,21.67
2022-08-22T22:36:54.305Z,21.65
2022-08-22T22:39:21.091Z,21.64
2022-08-22T22:41:49.182Z,21.60
2022-08-22T22:44:15.869Z,21.61
2022-08-22T22:46:43.051Z,21.61
2022-08-22T22:49:09.751Z,21.60
2022-08-22T22:51:36.497Z,21.61
2022-08-22T22:54:03.787Z,21.60
2022-08-22T22:56:31.651Z,21.56
2022-08-22T22:59:01.002Z,21.56
2022-08-22T23:01:33.422Z,21.58
2022-08-22T23:04:03.197Z,21.61
2022-08-22T23:06:32.677Z,21.60
2022-08-22T23:08:59.405Z,21.57
2022-08-22T23:11:28.602Z,21.57
2022-08-22T23:13:56.051Z,21.55
2022-08-22T23:16:26.848Z,21.60
2022-08-22T23:18:53.821Z,21.62
2022-08-22T23:21:27.730Z,21.59
2022-08-22T23:23:56.783Z,21.60
2022-08-22T23:26:23.751Z,21.57
2022-08-22T23:28:50.673Z,21.50
2022-08-22T23:31:29.494Z,21.49
2022-08-22T23:33:57.622Z,21.47
2022-08-22T23:36:24.408Z,21.45
2022-08-22T23:38:52.172Z,21.45
2022-08-22T23:41:20.551Z,21.44
2022-08-22T23:43:51.312Z,21.47
2022-08-22T23:46:19.789Z,21.45
2022-08-22T23:48:46.797Z,21.45
2022-08-22T23:51:16.865Z,21.41
2022-08-22T23:53:44.051Z,21.39
2022-08-22T23:56:21.878Z,21.34
2022-08-22T23:58:49.975Z,21.32
